Time;durP1;ratioP1;P1;durP2;ratioP2;P2;SDS_P1;SDS_P2;PMS_P1;PMS_P2;Temp;Humidity;BMP_temperature;BMP_pressure;BME280_temperature;BME280_humidity;BME280_pressure;Samples;Min_cycle;Max_cycle;Signal;HPM_P1;HPM_P2
2022/06/22 00:02:06;;;;;;;0.30;0.30;;;;;;;13.88;84.12;97628.03;4755313;30;20059;-92
2022/06/22 00:04:37;;;;;;;0.30;0.30;;;;;;;13.90;84.19;97630.44;4756901;30;20084;-93
2022/06/22 00:07:12;;;;;;;0.30;0.30;;;;;;;13.86;84.02;97622.91;4772034;30;20059;-91
2022/06/22 00:09:41;;;;;;;0.30;0.30;;;;;;;13.89;84.23;97629.63;4756826;30;20056;-92
2022/06/22 00:12:23;;;;;;;0.30;0.30;;;;;;;13.86;84.57;97619.41;4756363;30;20085;-92
2022/06/22 00:14:54;;;;;;;0.40;0.40;;;;;;;13.84;84.84;97627.81;4755873;30;20102;-92
2022/06/22 00:17:30;;;;;;;0.32;0.32;;;;;;;13.82;85.29;97621.09;4763708;30;20102;-93
2022/06/22 00:20:04;;;;;;;0.30;0.30;;;;;;;13.83;85.34;97625.44;4776754;30;20056;-92
2022/06/22 00:22:48;;;;;;;0.40;0.40;;;;;;;13.84;85.53;97616.19;4756096;30;20483;-92
2022/06/22 00:25:22;;;;;;;0.30;0.30;;;;;;;13.81;85.31;97620.28;4758383;30;20060;-93
2022/06/22 00:27:49;;;;;;;0.30;0.30;;;;;;;13.80;85.27;97624.13;4755091;30;20052;-91
2022/06/22 00:30:30;;;;;;;0.40;0.40;;;;;;;13.80;85.44;97616.00;4753834;30;20060;-93
2022/06/22 00:33:22;;;;;;;0.30;0.30;;;;;;;13.77;85.65;97615.75;4768620;30;20056;-92
2022/06/22 00:35:51;;;;;;;0.40;0.40;;;;;;;13.74;85.69;97617.16;4768818;30;20529;-92
2022/06/22 00:38:47;;;;;;;0.40;0.40;;;;;;;13.77;85.46;97615.75;4765980;30;20056;-91
2022/06/22 00:41:18;;;;;;;0.30;0.30;;;;;;;13.73;85.64;97621.00;4782103;30;20060;-90
2022/06/22 00:43:46;;;;;;;0.38;0.38;;;;;;;13.75;85.77;97624.22;4769155;30;20622;-91
2022/06/22 00:46:22;;;;;;;0.30;0.30;;;;;;;13.75;85.85;97618.78;4769748;30;20089;-92
2022/06/22 00:48:52;;;;;;;0.30;0.30;;;;;;;13.72;85.81;97613.16;4755871;30;20055;-94
2022/06/22 00:51:28;;;;;;;0.30;0.30;;;;;;;13.73;86.04;97621.00;4755782;30;20051;-93
2022/06/22 00:53:59;;;;;;;0.30;0.30;;;;;;;13.69;85.84;97622.69;4769751;30;20086;-93
2022/06/22 00:56:50;;;;;;;0.30;0.30;;;;;;;13.72;85.58;97635.63;4768575;30;20113;-92
2022/06/22 00:59:42;;;;;;;0.30;0.30;;;;;;;13.69;85.63;97635.44;4769434;30;20126;-92
2022/06/22 01:02:21;;;;;;;0.30;0.30;;;;;;;13.70;85.57;97631.59;4770137;30;20098;-93
2022/06/22 01:04:55;;;;;;;0.30;0.30;;;;;;;13.72;85.22;97635.63;4768653;30;20055;-93
2022/06/22 01:07:36;;;;;;;0.30;0.30;;;;;;;13.73;84.89;97631.03;4754386;30;20063;-93
2022/06/22 01:10:16;;;;;;;0.30;0.30;;;;;;;13.73;84.79;97631.03;4768687;30;20157;-91
2022/06/22 01:13:03;;;;;;;0.30;0.30;;;;;;;13.75;84.56;97643.19;4768281;30;20468;-92
2022/06/22 01:15:41;;;;;;;0.30;0.30;;;;;;;13.74;83.98;97638.84;4752794;30;20113;-90
2022/06/22 01:18:12;;;;;;;;;;;;;;;13.74;83.57;97638.84;4753123;30;20080;-94
2022/06/22 01:21:01;;;;;;;0.30;0.30;;;;;;;13.77;82.88;97640.16;4754136;30;19937;-92
2022/06/22 01:23:36;;;;;;;0.40;0.40;;;;;;;13.77;82.31;97635.53;4753997;30;20146;-94
2022/06/22 01:26:36;;;;;;;0.40;0.40;;;;;;;13.78;82.43;97637.16;4754079;30;20052;-92
2022/06/22 01:29:23;;;;;;;0.30;0.30;;;;;;;13.74;82.73;97638.84;4762174;30;20052;-92
2022/06/22 01:32:01;;;;;;;0.30;0.30;;;;;;;13.74;82.78;97641.56;4771906;29;20052;-92
2022/06/22 01:34:34;;;;;;;0.40;0.40;;;;;;;13.75;82.77;97640.47;4757507;30;20105;-91
2022/06/22 01:37:03;;;;;;;0.30;0.30;;;;;;;13.77;82.83;97649.09;4750584;30;20066;-92
2022/06/22 01:39:30;;;;;;;0.40;0.40;;;;;;;13.80;82.92;97648.53;4750147;30;20255;-92
2022/06/22 01:42:01;;;;;;;0.40;0.40;;;;;;;13.82;82.98;97651.75;4750547;30;20125;-93
2022/06/22 01:44:33;;;;;;;0.30;0.30;;;;;;;13.85;82.90;97655.78;4750276;30;20071;-93
2022/06/22 01:47:22;;;;;;;0.40;0.40;;;;;;;13.86;82.69;97658.16;4749726;30;20052;-94
2022/06/22 01:49:50;;;;;;;0.35;0.35;;;;;;;13.83;82.56;97650.63;4749899;30;20067;-92
2022/06/22 01:52:24;;;;;;;0.30;0.30;;;;;;;13.88;82.67;97655.16;4758825;30;20052;-93
2022/06/22 01:55:00;;;;;;;0.40;0.40;;;;;;;13.90;82.47;97657.56;4760775;30;20064;-93
2022/06/22 01:57:35;;;;;;;0.40;0.40;;;;;;;13.88;82.27;97658.69;4754295;30;20090;-93
2022/06/22 02:00:09;;;;;;;0.30;0.30;;;;;;;13.88;82.46;97661.38;4751033;30;20066;-93
2022/06/22 02:02:54;;;;;;;0.40;0.40;;;;;;;13.91;82.60;97656.47;4750417;30;20052;-92
2022/06/22 02:05:38;;;;;;;0.30;0.30;;;;;;;13.87;82.50;97659.78;4751226;30;20066;-92
2022/06/22 02:08:18;;;;;;;0.40;0.40;;;;;;;13.87;82.60;97650.81;4752325;30;20060;-91
2022/06/22 02:11:14;;;;;;;0.40;0.40;;;;;;;13.88;82.47;97658.69;4751843;30;20141;-92
2022/06/22 02:13:47;;;;;;;0.40;0.40;;;;;;;13.91;82.53;97659.19;4753356;30;20064;-90
2022/06/22 02:16:21;;;;;;;0.30;0.30;;;;;;;13.94;82.17;97658.59;4736040;30;20056;-91
2022/06/22 02:18:52;;;;;;;;;;;;;;;13.92;81.86;97660.78;4736929;30;20056;-92
2022/06/22 02:21:53;;;;;;;0.40;0.40;;;;;;;13.93;81.83;97660.50;4752288;30;19937;-92
2022/06/22 02:24:31;;;;;;;0.30;0.30;;;;;;;13.92;81.67;97656.16;4751406;30;20080;-92
2022/06/22 02:27:20;;;;;;;0.40;0.40;;;;;;;13.99;81.58;97663.91;4753037;30;20058;-92
2022/06/22 02:29:51;;;;;;;0.40;0.40;;;;;;;14.00;81.50;97663.63;4769475;30;20064;-91
2022/06/22 02:32:21;;;;;;;0.40;0.40;;;;;;;14.01;81.12;97664.44;4769536;30;20148;-91
2022/06/22 02:34:51;;;;;;;0.40;0.40;;;;;;;14.00;81.00;97663.63;4755154;30;20440;-92
2022/06/22 02:37:21;;;;;;;0.40;0.40;;;;;;;14.01;80.91;97659.00;4755101;30;20086;-93
2022/06/22 02:39:52;;;;;;;0.40;0.40;;;;;;;14.04;80.81;97666.53;4754250;30;20528;-92
2022/06/22 02:45:09;;;;;;;0.30;0.30;;;;;;;14.04;80.80;97663.81;4759833;30;20556;-92
2022/06/22 02:48:00;;;;;;;0.40;0.40;;;;;;;14.05;81.03;97654.56;4755284;30;20475;-92
2022/06/22 02:50:51;;;;;;;0.40;0.40;;;;;;;14.02;80.68;97653.25;4754529;30;20071;-93
2022/06/22 02:53:26;;;;;;;0.40;0.40;;;;;;;14.01;80.85;97648.16;4739541;30;20424;-93
2022/06/22 02:55:53;;;;;;;;;;;;;;;14.00;80.72;97647.34;4754215;30;20536;-92
2022/06/22 02:58:26;;;;;;;0.30;0.30;;;;;;;13.97;80.64;97652.56;4753674;30;20409;-92
2022/06/22 03:00:53;;;;;;;0.40;0.40;;;;;;;13.99;80.58;97656.56;4751692;30;20088;-92
2022/06/22 03:03:21;;;;;;;0.40;0.40;;;;;;;14.07;80.64;97657.78;4755050;30;20579;-92
2022/06/22 03:05:50;;;;;;;0.40;0.40;;;;;;;14.12;80.53;97663.13;4754912;30;20147;-90
2022/06/22 03:08:18;;;;;;;0.40;0.40;;;;;;;14.15;80.13;97664.44;4768449;30;20474;-91
2022/06/22 03:10:47;;;;;;;0.40;0.40;;;;;;;14.17;79.92;97668.44;4754221;30;20475;-91
2022/06/22 03:13:21;;;;;;;0.40;0.40;;;;;;;14.22;79.95;97668.34;4753569;30;20082;-91
2022/06/22 03:15:48;;;;;;;0.40;0.40;;;;;;;14.23;79.70;97669.97;4770941;30;20406;-92
2022/06/22 03:18:40;;;;;;;0.40;0.40;;;;;;;14.25;79.19;97675.88;4755959;30;20086;-91
2022/06/22 03:21:15;;;;;;;0.40;0.40;;;;;;;14.23;79.08;97666.44;4756081;30;20064;-92
2022/06/22 03:23:48;;;;;;;0.40;0.40;;;;;;;14.23;78.79;97669.97;4755664;30;20139;-92
2022/06/22 03:26:18;;;;;;;0.40;0.40;;;;;;;14.20;78.66;97670.56;4753624;30;20139;-91
2022/06/22 03:29:10;;;;;;;0.40;0.40;;;;;;;14.22;78.33;97679.19;4754447;30;20117;-92
2022/06/22 03:31:50;;;;;;;0.40;0.40;;;;;;;14.23;78.09;97682.72;4755777;30;20108;-90
2022/06/22 03:34:39;;;;;;;0.40;0.40;;;;;;;14.24;78.55;97679.72;4758464;30;20056;-92
2022/06/22 03:37:23;;;;;;;0.40;0.40;;;;;;;14.26;78.30;97690.28;4746799;30;20205;-92
2022/06/22 03:39:55;;;;;;;0.68;0.40;;;;;;;14.22;78.51;97681.13;4758322;30;20087;-92
2022/06/22 03:42:45;;;;;;;0.40;0.40;;;;;;;14.18;78.75;97689.06;4768343;30;20060;-93
2022/06/22 03:45:20;;;;;;;0.32;0.32;;;;;;;14.17;78.87;97697.50;4753926;30;20125;-92
2022/06/22 03:48:22;;;;;;;0.40;0.40;;;;;;;14.23;79.04;97694.41;4739489;30;20079;-91
2022/06/22 03:50:55;;;;;;;0.40;0.40;;;;;;;14.20;78.69;97699.59;4755491;30;20066;-93
2022/06/22 03:53:41;;;;;;;0.30;0.30;;;;;;;14.16;78.97;97704.84;4756537;30;20495;-92
2022/06/22 03:56:21;;;;;;;0.40;0.40;;;;;;;14.18;79.31;97704.50;4755624;30;20052;-91
2022/06/22 03:58:50;;;;;;;0.38;0.38;;;;;;;14.18;79.23;97699.91;4756038;30;20184;-92
2022/06/22 04:01:19;;;;;;;0.40;0.40;;;;;;;14.18;79.03;97702.63;4763183;30;20064;-93
2022/06/22 04:03:55;;;;;;;0.40;0.40;;;;;;;14.15;79.27;97705.91;4758986;30;20444;-93
2022/06/22 04:06:35;;;;;;;0.30;0.30;;;;;;;14.25;79.26;97703.00;4772299;30;20115;-91
2022/06/22 04:09:07;;;;;;;0.40;0.40;;;;;;;14.29;78.58;97709.47;4771475;30;20063;-92
2022/06/22 04:11:43;;;;;;;0.40;0.40;;;;;;;14.32;78.15;97708.84;4756891;30;20114;-92
2022/06/22 04:14:13;;;;;;;0.40;0.40;;;;;;;14.34;78.06;97713.19;4763763;30;20152;-91
2022/06/22 04:16:48;;;;;;;0.40;0.40;;;;;;;14.33;77.56;97715.13;4759253;30;20052;-93
2022/06/22 04:19:22;;;;;;;0.40;0.40;;;;;;;14.32;77.26;97717.00;4740934;30;20079;-91
2022/06/22 04:21:56;;;;;;;0.30;0.30;;;;;;;14.27;77.45;97714.38;4770900;30;20104;-92
2022/06/22 04:24:28;;;;;;;0.40;0.40;;;;;;;14.34;77.20;97722.13;4774481;30;20056;-92
2022/06/22 04:27:01;;;;;;;0.40;0.40;;;;;;;14.31;77.47;97733.59;4759989;30;20068;-91
2022/06/22 04:30:07;;;;;;;0.40;0.40;;;;;;;14.35;77.45;97726.44;4756791;30;20203;-92
2022/06/22 04:32:39;;;;;;;0.40;0.40;;;;;;;14.34;77.12;97735.72;4752841;30;20068;-91
2022/06/22 04:35:27;;;;;;;0.40;0.40;;;;;;;14.39;77.13;97729.38;4752948;30;20068;-92
2022/06/22 04:37:59;;;;;;;0.40;0.40;;;;;;;14.42;77.39;97736.91;4754210;30;20060;-92
2022/06/22 04:40:41;;;;;;;0.40;0.40;;;;;;;14.54;77.68;97739.19;4754483;30;20060;-92
2022/06/22 04:43:10;;;;;;;0.40;0.40;;;;;;;14.54;77.37;97737.25;4736115;30;20095;-91
2022/06/22 04:45:40;;;;;;;0.40;0.40;;;;;;;14.64;76.42;97738.97;4735584;30;20056;-92
2022/06/22 04:48:37;;;;;;;0.40;0.40;;;;;;;14.68;76.24;97729.91;4724936;30;20080;-92
2022/06/22 04:51:07;;;;;;;0.40;0.40;;;;;;;14.76;75.54;97735.75;4706420;30;20048;-92
2022/06/22 04:53:37;;;;;;;0.40;0.40;;;;;;;14.75;76.06;97748.53;4753453;30;20138;-93
2022/06/22 04:56:11;;;;;;;0.40;0.40;;;;;;;14.66;76.18;97742.19;4738365;30;20429;-93
2022/06/22 04:58:44;;;;;;;0.40;0.40;;;;;;;14.79;76.03;97752.25;4740101;30;20504;-94
2022/06/22 05:01:26;;;;;;;0.40;0.40;;;;;;;14.87;75.59;97750.75;4739563;30;20056;-91
2022/06/22 05:04:03;;;;;;;0.40;0.40;;;;;;;15.02;74.94;97766.72;4737117;30;20067;-91
2022/06/22 05:07:02;;;;;;;0.40;0.40;;;;;;;15.22;75.17;97756.50;4747789;30;20143;-93
2022/06/22 05:09:37;;;;;;;0.40;0.40;;;;;;;15.31;74.22;97749.25;4757885;30;20079;-94
2022/06/22 05:12:15;;;;;;;0.40;0.40;;;;;;;15.44;74.16;97751.13;4740426;30;20086;-91
2022/06/22 05:15:01;;;;;;;0.40;0.40;;;;;;;15.49;73.27;97740.13;4740935;30;20087;-93
2022/06/22 05:17:37;;;;;;;0.40;0.40;;;;;;;15.59;73.55;97760.84;4740870;30;20082;-94
2022/06/22 05:20:26;;;;;;;0.40;0.40;;;;;;;15.73;72.97;97760.84;4749506;30;20513;-95
2022/06/22 05:23:09;;;;;;;0.40;0.40;;;;;;;15.81;72.18;97757.38;4744683;30;20068;-94
2022/06/22 05:25:37;;;;;;;0.40;0.40;;;;;;;15.79;72.29;97754.97;4786326;30;20055;-93
2022/06/22 05:28:12;;;;;;;0.40;0.40;;;;;;;15.72;71.94;97756.50;4461978;24;10001582;-93
2022/06/22 05:31:04;;;;;;;0.40;0.40;;;;;;;15.80;71.69;97766.66;4751045;30;20052;-90
2022/06/22 05:33:34;;;;;;;0.40;0.40;;;;;;;15.90;71.30;97773.75;4751825;30;20107;-91
2022/06/22 05:36:11;;;;;;;0.40;0.40;;;;;;;15.88;70.88;97771.34;4754337;30;20086;-91
2022/06/22 05:39:05;;;;;;;0.40;0.40;;;;;;;15.87;70.57;97772.44;4756116;30;20062;-95
2022/06/22 05:41:36;;;;;;;0.40;0.40;;;;;;;15.95;69.49;97787.22;4756599;30;20060;-92
2022/06/22 05:44:34;;;;;;;0.40;0.40;;;;;;;15.99;70.40;97791.75;4739948;30;20056;-93
2022/06/22 05:47:41;;;;;;;0.40;0.40;;;;;;;15.82;69.75;97780.75;4733955;30;20083;-93
2022/06/22 05:50:42;;;;;;;0.40;0.40;;;;;;;15.97;69.39;97787.72;4730439;30;20063;-90
2022/06/22 05:53:16;;;;;;;0.40;0.40;;;;;;;15.84;68.98;97786.69;4729039;30;20057;-90
2022/06/22 05:56:16;;;;;;;0.40;0.40;;;;;;;15.92;69.19;97785.13;4728256;30;20778;-90
2022/06/22 05:58:45;;;;;;;0.30;0.30;;;;;;;15.99;69.13;97790.97;4719409;30;20095;-87
2022/06/22 06:01:38;;;;;;;0.40;0.40;;;;;;;16.12;68.60;97794.72;4741873;30;20139;-90
2022/06/22 06:04:20;;;;;;;0.40;0.40;;;;;;;16.15;68.78;97791.38;4752831;30;20060;-92
2022/06/22 06:06:51;;;;;;;0.40;0.40;;;;;;;16.23;68.40;97785.22;4736542;30;20053;-92
2022/06/22 06:09:21;;;;;;;0.40;0.40;;;;;;;16.38;67.96;97798.41;4739098;30;20060;-91
2022/06/22 06:11:58;;;;;;;0.40;0.40;;;;;;;16.47;68.34;97795.72;4743003;30;20151;-93
2022/06/22 06:14:32;;;;;;;0.40;0.40;;;;;;;16.62;67.40;97802.69;4744461;30;20500;-90
2022/06/22 06:17:06;;;;;;;0.40;0.40;;;;;;;16.82;67.19;97807.63;4721253;30;20060;-94
2022/06/22 06:19:36;;;;;;;0.40;0.40;;;;;;;16.91;67.16;97796.75;4740989;30;20060;-90
2022/06/22 06:22:05;;;;;;;0.40;0.40;;;;;;;17.03;66.62;97804.34;4714465;30;20644;-96
2022/06/22 06:24:37;;;;;;;0.40;0.40;;;;;;;17.12;66.10;97813.34;4724003;30;20517;-92
2022/06/22 06:27:34;;;;;;;0.40;0.40;;;;;;;17.19;66.34;97813.69;4733935;30;20175;-91
2022/06/22 06:30:27;;;;;;;;;;;;;;;17.22;66.16;97817.72;4724990;30;20369;-93
2022/06/22 06:33:15;;;;;;;0.40;0.40;;;;;;;17.24;66.29;97815.44;4741377;30;19930;-93
2022/06/22 06:36:02;;;;;;;0.40;0.40;;;;;;;17.15;66.16;97804.53;4755560;30;20590;-94
2022/06/22 06:38:43;;;;;;;0.40;0.40;;;;;;;17.06;65.86;97811.88;4748446;30;20061;-91
2022/06/22 06:41:26;;;;;;;0.40;0.40;;;;;;;16.89;66.41;97802.53;4747372;30;20071;-91
2022/06/22 06:44:18;;;;;;;0.40;0.40;;;;;;;16.97;66.24;97820.03;4753107;30;20057;-95
2022/06/22 06:46:53;;;;;;;0.40;0.40;;;;;;;16.93;66.49;97812.78;4736455;30;20072;-94
2022/06/22 06:49:51;;;;;;;0.40;0.40;;;;;;;17.04;65.49;97801.31;4726316;30;20135;-90
2022/06/22 06:52:36;;;;;;;0.40;0.40;;;;;;;17.24;65.74;97819.00;4744909;30;20064;-93
2022/06/22 06:55:34;;;;;;;0.40;0.40;;;;;;;17.44;65.18;97816.78;4742150;30;20056;-93
2022/06/22 06:58:11;;;;;;;0.40;0.40;;;;;;;17.60;65.02;97819.84;4741052;30;20231;-90
2022/06/22 07:00:38;;;;;;;0.40;0.40;;;;;;;17.65;64.51;97819.72;4741443;30;20091;-93
2022/06/22 07:03:22;;;;;;;0.40;0.40;;;;;;;17.84;64.55;97827.59;4725127;30;20088;-94
2022/06/22 07:05:51;;;;;;;0.40;0.40;;;;;;;17.93;64.11;97825.69;4712217;30;20222;-94
2022/06/22 07:08:38;;;;;;;0.40;0.40;;;;;;;17.90;64.21;97818.13;4742705;30;20049;-92
2022/06/22 07:11:41;;;;;;;0.50;0.50;;;;;;;17.77;64.17;97820.69;4726832;30;20057;-93
2022/06/22 07:14:27;;;;;;;0.40;0.40;;;;;;;17.89;63.59;97824.72;4737189;30;20136;-93
2022/06/22 07:16:57;;;;;;;0.40;0.40;;;;;;;17.96;63.34;97839.50;4732048;30;20065;-92
2022/06/22 07:19:29;;;;;;;0.40;0.40;;;;;;;18.04;63.74;97843.34;4744503;30;20049;-94
2022/06/22 07:22:00;;;;;;;0.40;0.40;;;;;;;18.25;63.78;97848.16;4726885;30;20049;-94
2022/06/22 07:24:58;;;;;;;0.40;0.40;;;;;;;18.29;63.05;97846.38;4741605;30;20053;-93
2022/06/22 07:27:52;;;;;;;0.40;0.40;;;;;;;18.42;62.65;97851.66;4729231;30;20061;-94
2022/06/22 07:30:40;;;;;;;0.40;0.40;;;;;;;18.49;62.66;97856.63;4727839;30;20053;-93
2022/06/22 07:33:21;;;;;;;0.40;0.40;;;;;;;18.51;62.38;97862.59;4726562;30;20072;-92
2022/06/22 07:35:58;;;;;;;0.40;0.40;;;;;;;18.66;61.40;97865.91;4739160;30;20114;-95
2022/06/22 07:38:47;;;;;;;0.40;0.40;;;;;;;18.87;61.46;97866.84;4740072;30;20065;-94
2022/06/22 07:41:20;;;;;;;0.40;0.40;;;;;;;18.89;61.62;97875.53;4727489;30;20084;-94
2022/06/22 07:43:50;;;;;;;0.40;0.40;;;;;;;18.82;61.54;97883.44;4727987;30;20402;-93
2022/06/22 07:46:35;;;;;;;0.40;0.40;;;;;;;18.72;62.25;97875.56;4740037;30;20053;-93
2022/06/22 07:49:17;;;;;;;0.50;0.50;;;;;;;18.79;61.02;97871.22;4743352;30;20069;-94
2022/06/22 07:52:05;;;;;;;0.40;0.40;;;;;;;18.92;60.47;97877.63;4730394;30;20118;-92
2022/06/22 07:54:51;;;;;;;0.40;0.40;;;;;;;18.73;60.38;97872.47;4749935;30;20077;-92
2022/06/22 07:57:50;;;;;;;0.40;0.40;;;;;;;18.79;59.93;97893.09;4746154;30;20152;-92
2022/06/22 08:00:20;;;;;;;0.40;0.40;;;;;;;18.84;59.71;97886.66;4730857;30;20462;-93
2022/06/22 08:03:16;;;;;;;0.40;0.40;;;;;;;19.07;60.27;97886.41;4726445;30;20057;-93
2022/06/22 08:05:50;;;;;;;0.40;0.40;;;;;;;19.32;58.83;97890.16;4740115;30;20060;-93
2022/06/22 08:08:23;;;;;;;0.40;0.40;;;;;;;19.51;57.81;97887.00;4738754;30;20057;-94
2022/06/22 08:11:06;;;;;;;0.40;0.40;;;;;;;19.69;57.30;97883.88;4424596;30;9999737;-95
2022/06/22 08:13:39;;;;;;;0.40;0.40;;;;;;;19.96;56.23;97889.19;4747040;30;20127;-96
2022/06/22 08:16:12;;;;;;;0.40;0.40;;;;;;;20.19;54.93;97887.72;4731418;30;20063;-92
2022/06/22 08:18:41;;;;;;;0.30;0.30;;;;;;;20.11;55.46;97885.84;4748515;30;20064;-89
2022/06/22 08:21:13;;;;;;;0.30;0.30;;;;;;;19.87;55.12;97887.28;4722920;30;20100;-92
2022/06/22 08:23:41;;;;;;;0.30;0.30;;;;;;;19.70;55.62;97888.22;4747241;30;20101;-94
2022/06/22 08:26:16;;;;;;;0.30;0.30;;;;;;;19.62;55.55;97896.44;4747691;30;20056;-93
2022/06/22 08:29:08;;;;;;;0.30;0.30;;;;;;;19.52;55.65;97902.28;4723782;30;20061;-93
2022/06/22 08:32:06;;;;;;;0.40;0.40;;;;;;;19.49;55.39;97892.81;4722160;30;20543;-93
2022/06/22 08:34:56;;;;;;;0.40;0.40;;;;;;;19.36;54.80;97891.09;4725412;30;20592;-94
2022/06/22 08:37:37;;;;;;;0.40;0.40;;;;;;;19.53;54.64;97887.50;4739621;30;20517;-89
2022/06/22 08:40:32;;;;;;;0.40;0.40;;;;;;;19.90;53.55;97894.03;4749160;29;20072;-92
2022/06/22 08:43:14;;;;;;;;;;;;;;;20.22;52.99;97891.72;4737724;30;20064;-91
2022/06/22 08:46:03;;;;;;;0.40;0.40;;;;;;;20.45;52.74;97894.91;4737757;30;19934;-91
2022/06/22 08:49:23;;;;;;;0.40;0.40;;;;;;;21.03;51.80;97903.22;4743185;30;20326;-91
2022/06/22 08:52:27;;;;;;;0.40;0.40;;;;;;;21.50;49.77;97895.41;4740952;30;20068;-90
2022/06/22 08:55:32;;;;;;;0.50;0.50;;;;;;;21.81;48.59;97891.25;4732885;30;20711;-92
2022/06/22 08:58:41;;;;;;;0.40;0.40;;;;;;;21.65;48.39;97899.41;4734088;30;20088;-91
2022/06/22 09:01:27;;;;;;;0.43;0.43;;;;;;;21.60;47.83;97900.44;4723114;30;20499;-91
2022/06/22 09:03:56;;;;;;;0.60;0.60;;;;;;;21.78;47.29;97891.94;4736438;30;20080;-92
2022/06/22 09:06:55;;;;;;;0.50;0.50;;;;;;;21.68;46.77;97893.22;4735333;30;20049;-91
2022/06/22 09:09:47;;;;;;;0.40;0.40;;;;;;;21.56;46.92;97882.25;4745074;30;20114;-90
2022/06/22 09:13:09;;;;;;;0.40;0.40;;;;;;;22.20;45.64;97900.69;4725628;30;20069;-92
2022/06/22 09:15:45;;;;;;;0.60;0.60;;;;;;;22.49;44.80;97907.00;4739765;30;20124;-90
2022/06/22 09:18:44;;;;;;;0.50;0.50;;;;;;;22.82;44.35;97909.50;4726974;30;20063;-92
2022/06/22 09:21:45;;;;;;;0.40;0.40;;;;;;;22.85;43.68;97908.78;4739872;30;20075;-92
2022/06/22 09:24:39;;;;;;;0.50;0.50;;;;;;;22.57;45.13;97902.50;4737527;30;20083;-92
2022/06/22 09:27:23;;;;;;;0.40;0.40;;;;;;;22.82;43.57;97909.50;4739694;30;20143;-91
2022/06/22 09:30:18;;;;;;;0.50;0.50;;;;;;;23.36;42.58;97903.44;4734047;30;20582;-92
2022/06/22 09:33:56;;;;;;;;;;;;;;;;;;;;;
2022/06/22 09:37:33;;;;;;;0.60;0.60;;;;;;;24.79;38.49;97896.75;4705316;30;20064;-90
2022/06/22 09:40:49;;;;;;;0.60;0.60;;;;;;;25.41;37.72;97893.91;4719423;30;20053;-90
2022/06/22 09:43:28;;;;;;;0.70;0.70;;;;;;;25.89;36.69;97889.53;4704784;30;20060;-91
2022/06/22 09:46:10;;;;;;;0.50;0.50;;;;;;;26.13;36.06;97907.63;4690770;30;20434;-90
2022/06/22 09:49:04;;;;;;;0.30;0.30;;;;;;;25.08;38.13;97898.03;4373174;30;9999796;-93
2022/06/22 09:58:03;;;;;;;0.30;0.30;;;;;;;23.18;40.75;97904.16;4663404;30;20141;-87
2022/06/22 10:00:55;;;;;;;0.30;0.30;;;;;;;22.92;41.07;97899.94;4667617;30;20050;-92
2022/06/22 10:03:42;;;;;;;0.35;0.35;;;;;;;22.76;40.89;97899.88;4660918;30;20123;-93
2022/06/22 10:06:33;;;;;;;0.30;0.30;;;;;;;22.57;40.55;97913.50;4681947;30;20113;-94
2022/06/22 10:09:27;;;;;;;0.38;0.38;;;;;;;22.28;40.93;97912.69;4666019;30;20130;-94
2022/06/22 10:12:03;;;;;;;0.30;0.30;;;;;;;22.14;41.55;97921.28;4666164;30;20058;-92
2022/06/22 10:14:57;;;;;;;0.30;0.30;;;;;;;22.15;41.59;97916.59;4693311;30;20068;-93
2022/06/22 10:17:38;;;;;;;0.40;0.40;;;;;;;22.06;41.83;97917.53;4679039;30;20359;-92
2022/06/22 10:20:46;;;;;;;0.32;0.32;;;;;;;22.05;42.38;97926.09;4674091;30;20064;-92
2022/06/22 10:23:50;;;;;;;0.32;0.32;;;;;;;22.20;43.05;97927.38;4657077;30;20069;-91
2022/06/22 10:26:21;;;;;;;0.40;0.40;;;;;;;22.32;42.26;97938.31;4664838;30;20205;-94
2022/06/22 10:29:10;;;;;;;0.40;0.40;;;;;;;22.26;42.33;97932.28;4655863;30;20073;-94
2022/06/22 10:32:16;;;;;;;0.30;0.30;;;;;;;22.02;43.12;97933.09;4653934;30;20050;-92
2022/06/22 10:35:06;;;;;;;0.30;0.30;;;;;;;22.17;42.46;97933.53;4718114;30;20084;-93
2022/06/22 10:37:36;;;;;;;0.30;0.30;;;;;;;22.13;43.13;97944.44;4733556;30;20064;-96
2022/06/22 10:40:06;;;;;;;0.30;0.30;;;;;;;21.78;43.71;97939.44;4727611;30;20538;-92
2022/06/22 10:46:11;;;;;;;0.30;0.30;;;;;;;21.27;45.17;97957.31;4731363;30;20144;-93
2022/06/22 10:48:57;;;;;;;0.30;0.30;;;;;;;21.25;45.45;97965.09;4729631;30;20045;-92
2022/06/22 10:51:42;;;;;;;0.30;0.30;;;;;;;21.16;45.59;97962.44;4718715;30;20065;-93
2022/06/22 10:54:28;;;;;;;0.30;0.30;;;;;;;21.10;46.20;97961.84;4714309;30;20050;-93
2022/06/22 10:57:28;;;;;;;0.30;0.30;;;;;;;21.13;45.99;97957.63;4713709;30;20057;-94
2022/06/22 11:00:01;;;;;;;0.30;0.30;;;;;;;21.18;45.64;97969.19;4730840;30;20063;-93
2022/06/22 11:03:15;;;;;;;0.30;0.30;;;;;;;21.25;46.06;97963.16;4726942;30;20119;-93
2022/06/22 11:06:24;;;;;;;0.30;0.30;;;;;;;21.26;46.31;97972.19;4741495;30;20067;-94
2022/06/22 11:09:38;;;;;;;0.30;0.30;;;;;;;21.43;45.76;97969.25;4743168;30;20409;-93
2022/06/22 11:12:38;;;;;;;0.30;0.30;;;;;;;21.22;46.04;97974.81;4724937;30;20049;-89
2022/06/22 11:15:29;;;;;;;0.30;0.30;;;;;;;21.20;46.57;97980.63;4715380;30;20056;-93
2022/06/22 11:18:31;;;;;;;0.30;0.30;;;;;;;21.26;46.72;97985.91;4737102;30;20072;-88
2022/06/22 11:21:29;;;;;;;0.30;0.30;;;;;;;21.38;45.94;97986.75;4743776;24;20075;-92
2022/06/22 11:24:05;;;;;;;0.30;0.30;;;;;;;21.43;46.65;97980.25;4755677;30;20076;-92
2022/06/22 11:32:53;;;;;;;0.30;0.30;;;;;;;21.62;45.61;97996.16;4753551;30;20060;-90
2022/06/22 11:35:48;;;;;;;0.30;0.30;;;;;;;21.47;45.53;97994.06;4759799;30;20094;-85
2022/06/22 11:38:20;;;;;;;;;;;;;;;21.55;45.71;98006.91;4768042;30;20506;-88
2022/06/22 11:41:14;;;;;;;0.30;0.30;;;;;;;21.56;45.73;98003.03;4753889;30;19930;-87
2022/06/22 11:44:14;;;;;;;0.30;0.30;;;;;;;21.75;45.37;98002.44;4755379;30;20052;-89
2022/06/22 11:46:47;;;;;;;0.30;0.30;;;;;;;21.84;44.83;97997.66;4752882;30;20505;-91
2022/06/22 11:49:48;;;;;;;0.30;0.30;;;;;;;21.79;45.54;97993.19;4758406;30;20143;-88
2022/06/22 11:52:21;;;;;;;0.22;0.22;;;;;;;21.58;45.96;98000.75;4756181;30;20059;-89
2022/06/22 11:54:54;;;;;;;0.20;0.20;;;;;;;21.28;46.09;98002.81;4740147;30;20048;-88
2022/06/22 11:57:47;;;;;;;0.30;0.30;;;;;;;21.04;46.76;98003.53;4750225;30;20421;-88
2022/06/22 12:00:52;;;;;;;0.30;0.30;;;;;;;21.05;46.36;98000.47;4769538;29;20107;-87
2022/06/22 12:03:25;;;;;;;0.40;0.40;;;;;;;21.16;46.11;98004.38;4764565;30;20111;-87
2022/06/22 12:06:04;;;;;;;0.30;0.30;;;;;;;21.83;45.19;97999.59;4757471;30;20086;-88
2022/06/22 12:09:05;;;;;;;0.50;0.50;;;;;;;22.86;43.17;98009.38;4753569;30;20056;-89
2022/06/22 12:11:32;;;;;;;0.50;0.50;;;;;;;24.83;39.99;97997.72;4757746;30;20064;-88
2022/06/22 12:17:08;;;;;;;0.40;0.40;;;;;;;25.10;38.93;98006.13;4743794;30;20083;-90
2022/06/22 12:20:07;;;;;;;0.60;0.60;;;;;;;25.99;37.76;97992.31;4736670;30;20140;-89
2022/06/22 12:22:43;;;;;;;0.80;0.80;;;;;;;27.63;35.22;97999.91;4734535;30;20122;-89
2022/06/22 12:25:29;;;;;;;0.70;0.70;;;;;;;29.15;32.70;98005.25;4734969;30;20080;-89
2022/06/22 12:28:25;;;;;;;0.20;0.20;;;;;;;27.02;34.94;98001.25;4743154;30;20099;-91
2022/06/22 12:31:10;;;;;;;0.20;0.20;;;;;;;25.73;37.19;98005.72;4749454;30;20571;-87
2022/06/22 12:34:19;;;;;;;0.20;0.20;;;;;;;24.79;39.20;97990.53;4754432;30;20411;-89
2022/06/22 12:36:49;;;;;;;0.30;0.30;;;;;;;24.56;39.48;97995.94;4729654;30;20089;-89
2022/06/22 12:39:42;;;;;;;0.20;0.20;;;;;;;24.77;39.37;97998.38;4742755;30;20055;-89
2022/06/22 12:42:29;;;;;;;0.40;0.40;;;;;;;24.88;38.58;97996.63;4721517;30;20084;-89
2022/06/22 12:45:12;;;;;;;0.60;0.60;;;;;;;25.49;37.46;97992.25;4745643;30;20048;-89
2022/06/22 12:48:05;;;;;;;0.40;0.40;;;;;;;26.16;36.38;97989.84;4748506;30;20159;-90
2022/06/22 12:50:39;;;;;;;0.70;0.70;;;;;;;26.70;35.32;97984.25;4748642;30;20131;-89
2022/06/22 12:53:17;;;;;;;0.20;0.20;;;;;;;26.01;36.13;97998.28;4749329;30;20051;-88
2022/06/22 12:55:49;;;;;;;0.20;0.20;;;;;;;25.16;38.42;97999.16;4748750;30;20253;-90
2022/06/22 12:58:27;;;;;;;0.20;0.20;;;;;;;24.63;38.97;97999.66;4750771;30;20056;-92
2022/06/22 13:00:56;;;;;;;0.20;0.20;;;;;;;24.55;38.57;97992.41;4753640;30;20047;-91
2022/06/22 13:03:34;;;;;;;0.30;0.30;;;;;;;24.37;38.94;98002.22;4730466;30;20056;-89
2022/06/22 13:06:02;;;;;;;0.30;0.30;;;;;;;24.36;38.89;97997.88;4763466;30;20601;-87
2022/06/22 13:08:29;;;;;;;0.57;0.57;;;;;;;24.59;38.58;97993.28;4749073;30;20051;-88
2022/06/22 13:11:02;;;;;;;0.70;0.70;;;;;;;27.27;33.94;97989.66;4743942;30;20059;-89